createdAt,value
2022-08-07T00:04:16.851Z,87.82001
2022-08-07T00:09:24.050Z,87.92
2022-08-07T00:14:32.248Z,87.96
2022-08-07T00:19:39.075Z,88.19
2022-08-07T00:24:47.927Z,87.94001
2022-08-07T00:29:54.857Z,87.97
2022-08-07T00:35:02.001Z,87.97
2022-08-07T00:40:09.477Z,87.66001
2022-08-07T00:45:18.091Z,87.15
2022-08-07T00:50:25.498Z,86.88
2022-08-07T00:55:32.942Z,86.63
2022-08-07T01:00:40.496Z,86.4
2022-08-07T01:05:48.875Z,85.9
2022-08-07T01:10:55.574Z,85.95
2022-08-07T01:16:03.915Z,85.75
2022-08-07T01:21:11.065Z,85.65001
2022-08-07T01:26:34.928Z,85.16001
2022-08-07T01:31:41.684Z,85.04001
2022-08-07T01:36:49.369Z,85.22
2022-08-07T01:41:57.976Z,84.8
2022-08-07T01:47:06.161Z,84.56
2022-08-07T01:52:14.795Z,84.78
2022-08-07T01:57:21.498Z,84.65
2022-08-07T02:02:28.703Z,84.64
2022-08-07T02:09:07.665Z,84.64
2022-08-07T02:14:14.128Z,85.42
2022-08-07T02:19:22.251Z,86.68
2022-08-07T02:24:30.810Z,86.71
2022-08-07T02:29:39.061Z,87.1
2022-08-07T02:34:46.623Z,86.46
2022-08-07T02:39:53.211Z,86.07
2022-08-07T02:45:01.784Z,86.1
2022-08-07T02:50:08.864Z,86.17
2022-08-07T02:55:21.818Z,85.2
2022-08-07T03:00:28.402Z,85.80001
2022-08-07T03:05:36.739Z,86.44
2022-08-07T03:10:44.079Z,87.42
2022-08-07T03:15:53.051Z,87.69
2022-08-07T03:21:01.129Z,88.24
2022-08-07T03:26:09.061Z,87.94001
2022-08-07T03:31:17.336Z,87.21
2022-08-07T03:36:25.328Z,87.34
2022-08-07T03:41:32.055Z,87.0
2022-08-07T03:46:39.512Z,86.79
2022-08-07T03:51:47.427Z,86.94
2022-08-07T03:56:54.613Z,86.72
2022-08-07T04:02:02.435Z,86.56
2022-08-07T04:07:09.008Z,86.61
2022-08-07T04:12:16.856Z,86.41001
2022-08-07T04:17:25.293Z,86.19
2022-08-07T04:22:33.358Z,85.55
2022-08-07T04:27:40.339Z,84.81
2022-08-07T04:32:48.789Z,85.0
2022-08-07T04:37:57.271Z,85.36
2022-08-07T04:43:05.109Z,84.66001
2022-08-07T04:48:12.795Z,84.44
2022-08-07T04:53:21.357Z,84.27
2022-08-07T04:58:28.725Z,83.79001
2022-08-07T05:03:37.691Z,83.54
2022-08-07T05:08:45.036Z,83.34
2022-08-07T05:13:53.120Z,82.44
2022-08-07T05:19:00.483Z,82.80001
2022-08-07T05:24:09.489Z,82.41
2022-08-07T05:29:17.034Z,82.45
2022-08-07T05:34:25.229Z,81.89
2022-08-07T05:39:34.096Z,81.28
2022-08-07T05:44:41.819Z,81.0
2022-08-07T05:49:49.192Z,81.43001
2022-08-07T05:54:57.877Z,80.55
2022-08-07T06:00:06.412Z,79.51
2022-08-07T06:05:13.460Z,78.41001
2022-08-07T06:10:21.041Z,78.69
2022-08-07T06:15:29.647Z,77.32
2022-08-07T06:20:36.054Z,77.01
2022-08-07T06:25:43.903Z,75.7
2022-08-07T06:30:52.885Z,74.19
2022-08-07T06:35:59.804Z,74.16
2022-08-07T06:41:08.127Z,74.42
2022-08-07T06:46:16.191Z,71.55
2022-08-07T06:51:24.154Z,70.33
2022-08-07T06:56:32.380Z,69.15
2022-08-07T07:01:41.204Z,64.96
2022-08-07T07:06:48.979Z,62.91
2022-08-07T07:11:56.647Z,60.72
2022-08-07T07:17:06.066Z,59.03
2022-08-07T07:22:12.691Z,59.38
2022-08-07T07:27:21.045Z,58.3
2022-08-07T07:32:42.746Z,57.56
2022-08-07T07:38:02.837Z,58.04
2022-08-07T07:43:11.638Z,58.47
2022-08-07T07:48:21.279Z,59.64
2022-08-07T07:53:29.203Z,58.65
2022-08-07T07:58:37.018Z,58.54
2022-08-07T08:03:44.859Z,58.1
2022-08-07T08:08:52.102Z,58.47
2022-08-07T08:13:59.749Z,59.18
2022-08-07T08:19:07.804Z,57.19
2022-08-07T08:24:15.775Z,54.17
2022-08-07T08:29:23.755Z,53.17
2022-08-07T08:34:31.294Z,53.2
2022-08-07T08:39:39.729Z,54.43
2022-08-07T08:44:47.627Z,53.16
2022-08-07T08:49:55.833Z,53.78
2022-08-07T08:55:02.753Z,54.34
2022-08-07T09:00:10.935Z,52.65
2022-08-07T09:05:20.085Z,53.0
2022-08-07T09:10:27.447Z,52.22
2022-08-07T09:15:35.980Z,52.16
2022-08-07T09:20:49.689Z,50.88
2022-08-07T09:25:57.342Z,48.74
2022-08-07T09:31:04.143Z,49.66
2022-08-07T09:36:13.047Z,47.76
2022-08-07T09:41:21.961Z,46.7
2022-08-07T09:46:29.344Z,46.32
2022-08-07T09:51:37.693Z,48.05
2022-08-07T09:56:44.382Z,48.17
2022-08-07T10:01:52.729Z,47.61
2022-08-07T10:07:01.450Z,48.22
2022-08-07T10:12:09.239Z,49.68
2022-08-07T10:17:17.293Z,48.58
2022-08-07T10:22:25.725Z,50.14
2022-08-07T10:27:32.959Z,48.57
2022-08-07T10:32:39.923Z,47.49
2022-08-07T10:37:47.899Z,48.6
2022-08-07T10:42:55.660Z,48.53
2022-08-07T10:48:02.764Z,48.57
2022-08-07T10:53:10.072Z,48.51
2022-08-07T10:58:17.963Z,47.2
2022-08-07T11:03:24.376Z,46.67
2022-08-07T11:08:32.736Z,48.77
2022-08-07T11:13:39.635Z,46.3
2022-08-07T11:18:47.642Z,46.35
2022-08-07T11:23:53.818Z,48.01
2022-08-07T11:29:01.479Z,46.05
2022-08-07T11:34:08.832Z,46.04
2022-08-07T11:39:16.727Z,45.5
2022-08-07T11:44:24.315Z,46.62
2022-08-07T11:49:37.496Z,46.48
2022-08-07T11:54:45.530Z,46.34
2022-08-07T11:59:52.601Z,46.93
2022-08-07T12:05:00.372Z,45.78
2022-08-07T12:10:08.187Z,46.34
2022-08-07T12:15:16.780Z,46.6
2022-08-07T12:20:24.939Z,46.75
2022-08-07T12:25:34.172Z,45.84
2022-08-07T12:30:41.497Z,46.86
2022-08-07T12:35:54.421Z,44.95
2022-08-07T12:41:00.379Z,45.34
2022-08-07T12:46:08.152Z,44.56
2022-08-07T12:51:15.355Z,45.26
2022-08-07T12:56:23.238Z,44.88
2022-08-07T13:01:31.320Z,44.31
2022-08-07T13:06:38.469Z,45.28
2022-08-07T13:11:45.532Z,45.03
2022-08-07T13:16:53.385Z,45.59
2022-08-07T13:22:01.244Z,47.08
2022-08-07T13:27:09.039Z,46.3
2022-08-07T13:32:16.728Z,43.91
2022-08-07T13:37:24.694Z,44.31
2022-08-07T13:42:33.692Z,45.44
2022-08-07T13:47:41.310Z,44.7
2022-08-07T13:52:47.582Z,46.28
2022-08-07T13:57:55.738Z,47.88
2022-08-07T14:03:02.885Z,44.78
2022-08-07T14:08:10.101Z,45.28
2022-08-07T14:13:17.696Z,45.52
2022-08-07T14:18:25.287Z,46.63
2022-08-07T14:23:32.732Z,45.34
2022-08-07T14:28:40.596Z,44.69
2022-08-07T14:33:46.492Z,46.29
2022-08-07T14:39:02.158Z,46.04
2022-08-07T14:44:09.179Z,44.54
2022-08-07T14:49:17.637Z,46.51
2022-08-07T14:54:24.505Z,47.06
2022-08-07T14:59:32.065Z,46.32
2022-08-07T15:04:39.330Z,46.41
2022-08-07T15:09:47.130Z,48.24
2022-08-07T15:14:55.441Z,46.6
2022-08-07T15:20:03.416Z,46.36
2022-08-07T15:25:11.278Z,47.02
2022-08-07T15:30:19.036Z,48.04
2022-08-07T15:35:26.299Z,49.56
2022-08-07T15:40:33.891Z,49.46
2022-08-07T15:45:41.461Z,50.27
2022-08-07T15:50:49.593Z,50.42
2022-08-07T15:55:57.696Z,50.65
2022-08-07T16:01:06.547Z,50.27
2022-08-07T16:06:15.662Z,52.27
2022-08-07T16:11:22.944Z,52.81
2022-08-07T16:16:37.978Z,53.52
2022-08-07T16:21:45.592Z,54.28
2022-08-07T16:26:53.750Z,55.47
2022-08-07T16:32:00.730Z,54.92
2022-08-07T16:37:08.903Z,55.73
2022-08-07T16:42:16.821Z,55.41
2022-08-07T16:47:23.742Z,55.94
2022-08-07T16:52:31.541Z,56.1
2022-08-07T16:57:38.135Z,56.53
2022-08-07T17:02:45.333Z,57.18
2022-08-07T17:07:52.589Z,58.2
2022-08-07T17:12:59.106Z,57.89
2022-08-07T17:18:07.260Z,57.99
2022-08-07T17:23:15.617Z,58.31
2022-08-07T17:28:23.264Z,59.42
2022-08-07T17:33:30.392Z,60.59
2022-08-07T17:38:38.165Z,61.26
2022-08-07T17:43:46.373Z,62.0
2022-08-07T17:48:53.332Z,62.16
2022-08-07T17:54:02.062Z,62.5
2022-08-07T17:59:10.018Z,62.71
2022-08-07T18:04:26.325Z,63.08
2022-08-07T18:09:33.016Z,63.63
2022-08-07T18:14:40.598Z,64.3
2022-08-07T18:19:49.134Z,64.98001
2022-08-07T18:24:58.326Z,65.72
2022-08-07T18:30:06.255Z,66.48
2022-08-07T18:35:14.117Z,67.42
2022-08-07T18:40:21.336Z,68.4
2022-08-07T18:45:29.175Z,68.34
2022-08-07T18:50:36.457Z,68.79
2022-08-07T18:55:58.939Z,68.86
2022-08-07T19:01:05.499Z,68.86
2022-08-07T19:06:13.298Z,69.52
2022-08-07T19:11:20.839Z,70.2
2022-08-07T19:16:28.383Z,70.08
2022-08-07T19:21:36.448Z,71.05
2022-08-07T19:26:43.795Z,71.31
2022-08-07T19:31:53.174Z,72.07
2022-08-07T19:37:00.984Z,72.39
2022-08-07T19:42:08.861Z,72.55001
2022-08-07T19:47:16.486Z,73.38
2022-08-07T19:52:26.390Z,73.47
2022-08-07T19:57:33.657Z,73.95
2022-08-07T20:02:42.234Z,74.81
2022-08-07T20:07:50.100Z,75.92
2022-08-07T20:12:58.207Z,75.92
2022-08-07T20:18:06.291Z,76.51
2022-08-07T20:23:12.888Z,75.93
2022-08-07T20:28:21.202Z,76.32
2022-08-07T20:33:28.551Z,76.57
2022-08-07T20:38:37.082Z,77.16001
2022-08-07T20:43:45.354Z,76.54
2022-08-07T20:48:52.578Z,76.84
2022-08-07T20:54:01.623Z,77.58
2022-08-07T20:59:16.890Z,77.41001
2022-08-07T21:04:23.838Z,77.58
2022-08-07T21:09:32.064Z,77.56
2022-08-07T21:14:39.566Z,77.43
2022-08-07T21:19:46.139Z,78.58
2022-08-07T21:24:53.705Z,78.66001
2022-08-07T21:30:01.644Z,78.24
2022-08-07T21:35:09.641Z,78.98
2022-08-07T21:40:17.496Z,78.95
2022-08-07T21:45:24.096Z,79.9
2022-08-07T21:50:33.161Z,80.72001
2022-08-07T21:55:40.381Z,80.94001
2022-08-07T22:00:47.788Z,81.45
2022-08-07T22:05:55.430Z,80.55
2022-08-07T22:11:03.688Z,81.06
2022-08-07T22:16:11.846Z,80.93
2022-08-07T22:21:20.022Z,80.52
2022-08-07T22:26:27.926Z,80.47
2022-08-07T22:31:35.448Z,79.92
2022-08-07T22:36:42.452Z,80.75
2022-08-07T22:41:50.093Z,80.74
2022-08-07T22:46:59.275Z,80.54
2022-08-07T22:52:06.279Z,80.88
2022-08-07T22:57:14.814Z,80.96
2022-08-07T23:02:22.408Z,81.09
2022-08-07T23:07:30.473Z,81.51999
2022-08-07T23:12:37.337Z,81.90001
2022-08-07T23:17:43.927Z,82.18
2022-08-07T23:22:51.726Z,82.16001
2022-08-07T23:27:58.941Z,81.47
2022-08-07T23:33:06.781Z,81.24
2022-08-07T23:38:14.649Z,81.15001
2022-08-07T23:43:22.392Z,82.31
2022-08-07T23:48:30.282Z,81.92
2022-08-07T23:53:37.831Z,82.04
2022-08-07T23:58:45.624Z,81.89
